createdAt,value
2023-02-09T00:02:10.700Z,-2.33
2023-02-09T00:09:28.614Z,-2.31
2023-02-09T00:12:56.421Z,-2.32
2023-02-09T00:16:17.798Z,-2.36
2023-02-09T00:19:50.612Z,-2.33
2023-02-09T00:23:07.472Z,-2.35
2023-02-09T00:26:41.587Z,-2.45
2023-02-09T00:29:58.930Z,-2.46
2023-02-09T00:33:09.087Z,-2.38
2023-02-09T00:36:23.629Z,-2.34
2023-02-09T00:39:43.076Z,-2.38
2023-02-09T00:43:11.086Z,-2.52
2023-02-09T00:46:55.062Z,-2.47
2023-02-09T00:50:10.149Z,-2.47
2023-02-09T00:53:25.313Z,-2.51
2023-02-09T00:56:54.554Z,-2.60
2023-02-09T01:00:24.731Z,-2.77
2023-02-09T01:03:45.986Z,-2.80
2023-02-09T01:06:56.978Z,-2.85
2023-02-09T01:10:32.443Z,-2.75
2023-02-09T01:14:14.621Z,-2.78
2023-02-09T01:17:34.877Z,-2.84
2023-02-09T01:21:07.376Z,-2.87
2023-02-09T01:24:52.440Z,-2.82
2023-02-09T01:28:32.282Z,-2.82
2023-02-09T01:31:58.505Z,-2.77
2023-02-09T01:35:13.915Z,-2.64
2023-02-09T01:38:43.556Z,-2.59
2023-02-09T01:42:01.191Z,-2.60
2023-02-09T01:45:40.871Z,-2.91
2023-02-09T01:49:02.429Z,-2.79
2023-02-09T01:52:53.150Z,-2.77
2023-02-09T02:03:48.904Z,-2.80
2023-02-09T02:11:12.853Z,-2.77
2023-02-09T02:14:49.717Z,-2.72
2023-02-09T02:18:32.710Z,-2.75
2023-02-09T02:22:39.658Z,-2.83
2023-02-09T02:26:42.001Z,-2.75
2023-02-09T02:30:55.164Z,-2.82
2023-02-09T02:34:31.924Z,-2.81
2023-02-09T02:38:13.727Z,-2.83
2023-02-09T02:45:08.271Z,-2.87
2023-02-09T02:52:26.781Z,-2.92
2023-02-09T02:56:06.923Z,-2.89
2023-02-09T02:59:30.632Z,-2.88
2023-02-09T03:03:15.076Z,-3.00
2023-02-09T03:10:03.331Z,-3.16
2023-02-09T03:13:43.264Z,-3.19
2023-02-09T03:17:06.194Z,-3.20
2023-02-09T03:20:22.103Z,-3.20
2023-02-09T03:23:42.400Z,-3.28
2023-02-09T03:27:29.968Z,-3.24
2023-02-09T03:30:58.035Z,-3.31
2023-02-09T03:34:23.464Z,-3.41
2023-02-09T03:37:33.887Z,-3.55
2023-02-09T03:41:00.963Z,-3.76
2023-02-09T03:44:32.223Z,-3.57
2023-02-09T03:48:11.578Z,-3.45
2023-02-09T03:51:29.684Z,-3.55
2023-02-09T03:54:51.642Z,-3.63
2023-02-09T03:58:23.716Z,-3.76
2023-02-09T04:01:56.787Z,-3.67
2023-02-09T04:05:23.850Z,-3.69
2023-02-09T04:09:15.828Z,-3.75
2023-02-09T04:12:34.438Z,-3.78
2023-02-09T04:15:59.671Z,-3.69
2023-02-09T04:22:59.482Z,-3.59
2023-02-09T04:29:34.075Z,-3.44
2023-02-09T04:32:41.819Z,-3.41
2023-02-09T04:35:51.896Z,-3.35
2023-02-09T04:39:00.016Z,-3.32
2023-02-09T04:42:08.312Z,-3.26
2023-02-09T04:45:15.308Z,-3.47
2023-02-09T04:48:29.398Z,-3.57
2023-02-09T04:51:41.700Z,-3.60
2023-02-09T04:54:50.581Z,-3.55
2023-02-09T04:58:16.244Z,-3.82
2023-02-09T05:01:28.050Z,-4.15
2023-02-09T05:04:35.560Z,-4.10
2023-02-09T05:07:49.979Z,-3.98
2023-02-09T05:11:01.468Z,-3.87
2023-02-09T05:14:08.317Z,-3.86
2023-02-09T05:17:16.044Z,-3.73
2023-02-09T05:20:32.654Z,-3.69
2023-02-09T05:23:41.213Z,-3.60
2023-02-09T05:26:49.511Z,-3.49
2023-02-09T05:29:58.670Z,-3.41
2023-02-09T05:33:34.206Z,-3.36
2023-02-09T05:36:54.780Z,-3.42
2023-02-09T05:40:42.148Z,-3.38
2023-02-09T05:44:01.814Z,-3.41
2023-02-09T05:47:44.976Z,-3.41
2023-02-09T05:51:12.402Z,-3.34
2023-02-09T05:54:56.637Z,-3.30
2023-02-09T05:58:09.499Z,-3.34
2023-02-09T06:01:53.264Z,-3.27
2023-02-09T06:05:11.933Z,-3.30
2023-02-09T06:09:04.094Z,-3.33
2023-02-09T06:12:46.846Z,-3.35
2023-02-09T06:16:36.572Z,-3.36
2023-02-09T06:20:30.273Z,-3.44
2023-02-09T06:23:45.844Z,-3.40
2023-02-09T06:39:28.537Z,-3.39
2023-02-09T06:43:45.319Z,-3.43
2023-02-09T06:57:04.928Z,-3.49
2023-02-09T07:40:35.949Z,-2.77
2023-02-09T07:44:19.209Z,-2.68
2023-02-09T08:18:31.969Z,-1.47
2023-02-09T08:21:49.642Z,-1.26
2023-02-09T08:25:14.981Z,-1.11
2023-02-09T08:28:42.718Z,-0.96
2023-02-09T08:32:04.837Z,-0.79
2023-02-09T08:35:32.873Z,-0.58
2023-02-09T08:46:41.166Z,-0.46
2023-02-09T08:50:10.994Z,-0.33
2023-02-09T08:53:30.325Z,-0.14
2023-02-09T08:56:59.737Z,-0.01
2023-02-09T09:00:39.361Z,0.07
2023-02-09T09:04:21.910Z,0.29
2023-02-09T09:07:40.586Z,0.23
2023-02-09T09:14:27.510Z,0.32
2023-02-09T09:17:36.357Z,0.48
2023-02-09T09:21:08.203Z,0.49
2023-02-09T09:24:24.074Z,0.64
2023-02-09T09:28:00.045Z,0.72
2023-02-09T09:31:21.792Z,0.72
2023-02-09T09:34:36.454Z,0.91
2023-02-09T09:38:24.139Z,1.04
2023-02-09T09:41:51.995Z,1.16
2023-02-09T09:45:16.008Z,1.43
2023-02-09T09:48:46.062Z,1.99
2023-02-09T09:59:51.994Z,9.28
2023-02-09T10:06:48.623Z,11.77
2023-02-09T10:10:24.719Z,11.63
2023-02-09T10:14:48.622Z,12.50
2023-02-09T10:18:14.658Z,13.01
2023-02-09T10:25:04.450Z,13.01
2023-02-09T10:41:07.844Z,14.38
2023-02-09T16:31:47.492Z,3.71
2023-02-09T16:35:17.582Z,3.42
2023-02-09T16:38:34.146Z,3.18
2023-02-09T16:41:55.364Z,2.92
2023-02-09T16:45:22.784Z,2.82
2023-02-09T16:48:52.439Z,2.65
2023-02-09T16:52:02.530Z,2.55
2023-02-09T16:55:24.432Z,2.47
2023-02-09T16:58:37.301Z,2.41
2023-02-09T17:01:50.220Z,2.24
2023-02-09T17:05:00.546Z,2.11
2023-02-09T17:08:27.742Z,1.95
2023-02-09T17:11:45.196Z,1.91
2023-02-09T17:14:53.029Z,1.83
2023-02-09T17:18:02.175Z,1.68
2023-02-09T17:21:08.736Z,1.65
2023-02-09T17:24:17.013Z,1.64
2023-02-09T17:27:19.838Z,1.51
2023-02-09T17:30:22.556Z,1.54
2023-02-09T17:33:27.460Z,1.54
2023-02-09T17:36:32.011Z,1.44
2023-02-09T17:39:34.917Z,1.39
2023-02-09T17:42:38.656Z,1.47
2023-02-09T17:45:47.666Z,1.49
2023-02-09T17:48:50.570Z,1.55
2023-02-09T17:51:54.646Z,1.42
2023-02-09T17:54:57.426Z,1.47
2023-02-09T17:58:01.265Z,1.32
2023-02-09T18:01:20.185Z,1.35
2023-02-09T18:04:26.678Z,1.26
2023-02-09T18:07:31.122Z,1.13
2023-02-09T18:10:33.995Z,1.14
2023-02-09T18:13:36.645Z,1.10
2023-02-09T18:16:39.297Z,0.95
2023-02-09T18:19:42.048Z,1.02
2023-02-09T18:22:46.139Z,0.94
2023-02-09T18:25:50.907Z,0.96
2023-02-09T18:28:53.571Z,0.79
2023-02-09T18:31:56.635Z,0.80
2023-02-09T18:34:59.264Z,0.91
2023-02-09T18:38:06.102Z,0.80
2023-02-09T18:41:11.249Z,0.71
2023-02-09T18:44:14.132Z,0.67
2023-02-09T18:47:17.212Z,0.73
2023-02-09T18:50:21.631Z,0.70
2023-02-09T18:53:25.714Z,0.62
2023-02-09T18:56:28.472Z,0.59
2023-02-09T18:59:32.381Z,0.61
2023-02-09T19:02:35.253Z,0.49
2023-02-09T19:05:38.078Z,0.40
2023-02-09T19:08:42.276Z,0.47
2023-02-09T19:11:45.336Z,0.40
2023-02-09T19:14:48.408Z,0.48
2023-02-09T19:17:51.440Z,0.34
2023-02-09T19:20:55.588Z,0.29
2023-02-09T19:23:59.692Z,0.23
2023-02-09T19:27:03.570Z,0.24
2023-02-09T19:30:06.875Z,0.36
2023-02-09T19:33:09.520Z,0.37
2023-02-09T19:36:12.299Z,0.32
2023-02-09T19:39:17.334Z,0.27
2023-02-09T19:42:20.948Z,0.14
2023-02-09T19:45:24.086Z,0.12
2023-02-09T19:48:26.837Z,0.16
2023-02-09T19:51:29.538Z,0.11
2023-02-09T19:54:35.030Z,-0.01
2023-02-09T19:57:37.715Z,-0.08
2023-02-09T20:00:40.359Z,-0.02
2023-02-09T20:03:43.649Z,0.00
2023-02-09T20:06:46.355Z,-0.04
2023-02-09T20:09:52.299Z,-0.10
2023-02-09T20:12:57.090Z,-0.10
2023-02-09T20:15:59.775Z,-0.21
2023-02-09T20:19:02.456Z,-0.27
2023-02-09T20:22:05.189Z,-0.20
2023-02-09T20:25:10.598Z,-0.31
2023-02-09T20:28:13.622Z,-0.25
2023-02-09T20:31:19.635Z,-0.27
2023-02-09T20:34:22.652Z,-0.27
2023-02-09T20:37:25.773Z,-0.24
2023-02-09T20:40:30.803Z,-0.28
2023-02-09T20:43:50.983Z,-0.33
2023-02-09T20:46:59.629Z,-0.36
2023-02-09T20:50:02.389Z,-0.30
2023-02-09T20:53:05.116Z,-0.25
2023-02-09T20:56:09.602Z,-0.24
2023-02-09T20:59:13.498Z,-0.18
2023-02-09T21:02:16.259Z,-0.21
2023-02-09T21:05:19.014Z,-0.30
2023-02-09T21:08:22.818Z,-0.27
2023-02-09T21:11:27.014Z,-0.38
2023-02-09T21:14:41.848Z,-0.45
2023-02-09T21:17:48.436Z,-0.46
2023-02-09T21:20:51.492Z,-0.55
2023-02-09T21:23:54.790Z,-0.61
2023-02-09T21:27:00.610Z,-0.62
2023-02-09T21:30:03.897Z,-0.63
2023-02-09T21:33:06.556Z,-0.60
2023-02-09T21:36:10.132Z,-0.60
2023-02-09T21:39:13.122Z,-0.60
2023-02-09T21:42:31.183Z,-0.65
2023-02-09T21:45:33.978Z,-0.77
2023-02-09T21:48:36.722Z,-0.75
2023-02-09T21:51:39.641Z,-0.83
2023-02-09T21:54:42.293Z,-0.73
2023-02-09T21:57:46.275Z,-0.74
2023-02-09T22:00:57.512Z,-0.66
2023-02-09T22:04:00.611Z,-0.72
2023-02-09T22:07:03.281Z,-0.72
2023-02-09T22:10:06.744Z,-0.68
2023-02-09T22:13:10.736Z,-0.74
2023-02-09T22:16:19.693Z,-0.79
2023-02-09T22:19:22.568Z,-0.78
2023-02-09T22:22:25.287Z,-0.93
2023-02-09T22:25:28.973Z,-1.01
2023-02-09T22:28:36.005Z,-1.01
2023-02-09T22:31:39.024Z,-0.93
2023-02-09T22:34:41.754Z,-0.92
2023-02-09T22:37:44.453Z,-0.91
2023-02-09T22:40:47.123Z,-0.89
2023-02-09T22:43:53.104Z,-0.99
2023-02-09T22:46:56.131Z,-0.97
2023-02-09T22:49:58.848Z,-1.04
2023-02-09T22:53:01.548Z,-0.97
2023-02-09T22:56:04.796Z,-1.02
2023-02-09T22:59:09.372Z,-1.07
2023-02-09T23:02:12.706Z,-1.04
2023-02-09T23:05:15.436Z,-0.97
2023-02-09T23:08:18.423Z,-1.19
2023-02-09T23:11:21.366Z,-1.28
2023-02-09T23:14:25.452Z,-1.22
2023-02-09T23:20:32.156Z,-1.27
2023-02-09T23:23:35.417Z,-1.22
2023-02-09T23:26:39.658Z,-1.14
2023-02-09T23:29:43.884Z,-1.21
2023-02-09T23:32:47.410Z,-1.15
2023-02-09T23:35:50.139Z,-1.29
2023-02-09T23:38:54.182Z,-1.21
2023-02-09T23:41:56.937Z,-1.17
2023-02-09T23:45:00.991Z,-1.16
2023-02-09T23:48:03.684Z,-1.18
2023-02-09T23:51:08.788Z,-1.15
2023-02-09T23:54:11.579Z,-1.18
2023-02-09T23:57:14.254Z,-1.32
